Terminal Aerodrome Forecast
Issued by NWS

Home | Current Version | Previous Version | Text Only | Print | Product List | Glossary On
Versions: 1 2 3 4 5 6 7 8 9 10 11 12 13 14 15 16 17 18 19
000
FTUS41 KCAR 272141 AAA
TAFHUL
TAF AMD
KHUL 272141Z 2722/2818 34008KT P6SM BKN025
     FM280000 34006KT P6SM SCT040
     FM281500 34008KT P6SM BKN050=

USA.gov is the U.S. government's official web portal to all federal, state and local government web resources and services.